Time;durP1;ratioP1;P1;durP2;ratioP2;P2;SDS_P1;SDS_P2;PMS_P1;PMS_P2;Temp;Humidity;BMP_temperature;BMP_pressure;BME280_temperature;BME280_humidity;BME280_pressure;Samples;Min_cycle;Max_cycle;Signal;HPM_P1;HPM_P2
2023/09/23 00:00:46;;;;;;;11.30;10.05;;;15.60;99.90;;;;;;2107524;28;20383;-70
2023/09/23 00:01:47;;;;;;;10.70;9.70;;;15.60;99.90;;;;;;2101418;28;20184;-70
2023/09/23 00:02:49;;;;;;;11.88;9.75;;;15.60;99.90;;;;;;2102371;28;20074;-69
2023/09/23 00:03:51;;;;;;;10.70;9.57;;;15.60;99.90;;;;;;2103375;28;20035;-69
2023/09/23 00:04:51;;;;;;;12.98;9.50;;;15.60;99.90;;;;;;2102533;28;20086;-69
2023/09/23 00:05:52;;;;;;;11.65;9.70;;;15.60;99.90;;;;;;2102723;28;20169;-70
2023/09/23 00:06:53;;;;;;;10.57;9.32;;;15.60;99.90;;;;;;2110726;28;20039;-70
2023/09/23 00:07:54;;;;;;;10.90;9.70;;;15.50;99.90;;;;;;2111301;28;20206;-70
2023/09/23 00:08:55;;;;;;;10.93;9.63;;;15.50;99.90;;;;;;2100089;28;20109;-69
2023/09/23 00:09:56;;;;;;;10.77;9.68;;;15.50;99.90;;;;;;2099024;28;20035;-69
2023/09/23 00:10:57;;;;;;;13.57;9.15;;;15.50;99.90;;;;;;2105795;28;20506;-69
2023/09/23 00:12:00;;;;;;;10.90;9.60;;;15.50;99.90;;;;;;2109090;28;20020;-70
2023/09/23 00:13:01;;;;;;;12.07;9.38;;;15.50;99.90;;;;;;2108918;28;20448;-70
2023/09/23 00:14:04;;;;;;;10.57;9.13;;;15.50;99.90;;;;;;2108980;28;20031;-70
2023/09/23 00:15:05;;;;;;;10.55;9.10;;;15.50;99.90;;;;;;2108873;28;20027;-70
2023/09/23 00:16:07;;;;;;;9.52;8.52;;;15.50;99.90;;;;;;2103307;28;20286;-70
2023/09/23 00:17:08;;;;;;;9.70;8.68;;;15.50;99.90;;;;;;2096841;28;20514;-70
2023/09/23 00:18:09;;;;;;;9.40;8.50;;;15.40;99.90;;;;;;2109031;28;20229;-71
2023/09/23 00:19:09;;;;;;;10.43;8.30;;;15.40;99.90;;;;;;2106083;28;20034;-71
2023/09/23 00:20:16;;;;;;;9.07;8.07;;;15.40;99.90;;;;;;2108737;28;20031;-71
2023/09/23 00:21:17;;;;;;;9.55;8.45;;;15.30;99.90;;;;;;2099937;28;20031;-70
2023/09/23 00:22:17;;;;;;;9.15;8.18;;;15.40;99.90;;;;;;2086906;28;20024;-70
2023/09/23 00:23:20;;;;;;;9.75;8.18;;;15.30;99.90;;;;;;2108314;28;20023;-70
2023/09/23 00:24:21;;;;;;;8.75;7.72;;;15.30;99.90;;;;;;2100533;28;20032;-70
2023/09/23 00:25:23;;;;;;;12.07;8.05;;;15.30;99.90;;;;;;2100314;28;20020;-70
2023/09/23 00:26:26;;;;;;;8.63;7.72;;;15.30;99.90;;;;;;2108781;28;20027;-70
2023/09/23 00:27:27;;;;;;;9.15;7.93;;;15.30;99.90;;;;;;2098388;28;20024;-71
2023/09/23 00:28:28;;;;;;;8.63;7.80;;;15.30;99.90;;;;;;2098672;28;20052;-70
2023/09/23 00:29:30;;;;;;;8.45;7.65;;;15.20;99.90;;;;;;2099438;28;20464;-72
2023/09/23 00:30:32;;;;;;;8.65;7.68;;;15.20;99.90;;;;;;2100728;28;20056;-70
2023/09/23 00:31:33;;;;;;;9.20;7.88;;;15.20;99.90;;;;;;2100827;28;20017;-70
2023/09/23 00:32:34;;;;;;;8.10;7.30;;;15.20;99.90;;;;;;2103942;28;20543;-71
2023/09/23 00:33:37;;;;;;;9.75;8.20;;;15.20;99.90;;;;;;2099484;28;20093;-71
2023/09/23 00:34:39;;;;;;;9.00;7.57;;;15.20;99.90;;;;;;2095969;28;20024;-71
2023/09/23 00:35:40;;;;;;;8.95;7.80;;;15.20;99.90;;;;;;2107937;28;20216;-70
2023/09/23 00:36:41;;;;;;;9.60;7.60;;;15.10;99.90;;;;;;2103472;28;20015;-70
2023/09/23 00:37:43;;;;;;;8.30;7.50;;;15.10;99.90;;;;;;2105710;28;20740;-70
2023/09/23 00:38:44;;;;;;;8.45;7.65;;;15.10;99.90;;;;;;2099302;28;20112;-70
2023/09/23 00:39:44;;;;;;;8.88;7.68;;;15.10;99.90;;;;;;2099517;28;20051;-70
2023/09/23 00:40:45;;;;;;;8.50;7.68;;;15.10;99.90;;;;;;2089583;28;20028;-70
2023/09/23 00:41:46;;;;;;;10.00;7.95;;;15.10;99.90;;;;;;2098652;28;20077;-69
2023/09/23 00:42:47;;;;;;;8.77;7.88;;;15.10;99.90;;;;;;2106716;28;20381;-70
2023/09/23 00:43:48;;;;;;;9.27;7.70;;;15.10;99.90;;;;;;2106272;28;20035;-69
2023/09/23 00:44:50;;;;;;;8.65;7.72;;;15.10;99.90;;;;;;2087877;28;20044;-69
2023/09/23 00:45:54;;;;;;;12.20;8.13;;;15.10;99.90;;;;;;2090777;28;20035;-70
2023/09/23 00:46:56;;;;;;;8.57;7.78;;;15.10;99.90;;;;;;2096133;28;20094;-69
2023/09/23 00:47:56;;;;;;;9.70;8.10;;;15.10;99.90;;;;;;2091300;28;20492;-69
2023/09/23 00:48:59;;;;;;;10.10;8.23;;;15.10;99.90;;;;;;2091293;28;20028;-69
2023/09/23 00:50:03;;;;;;;8.30;7.50;;;15.10;99.90;;;;;;2107249;28;20089;-69
2023/09/23 00:51:06;;;;;;;8.40;7.60;;;15.10;99.90;;;;;;2098864;28;20268;-69
2023/09/23 00:52:07;;;;;;;8.70;7.80;;;15.10;99.90;;;;;;2107388;28;20036;-70
2023/09/23 00:53:08;;;;;;;8.90;8.00;;;15.20;99.90;;;;;;2102449;28;20050;-70
2023/09/23 00:54:08;;;;;;;9.27;7.57;;;15.20;99.90;;;;;;2093667;28;20109;-70
2023/09/23 00:55:10;;;;;;;8.43;7.05;;;15.20;99.90;;;;;;2099534;28;20023;-71
2023/09/23 00:56:12;;;;;;;8.25;7.35;;;15.20;99.90;;;;;;2108482;28;20035;-70
2023/09/23 00:57:17;;;;;;;8.10;7.30;;;15.10;99.90;;;;;;2103698;28;20032;-70
2023/09/23 00:58:21;;;;;;;8.10;7.30;;;15.10;99.90;;;;;;2103008;28;20432;-70
2023/09/23 00:59:23;;;;;;;9.30;7.68;;;15.10;99.90;;;;;;2107885;28;20015;-69
2023/09/23 01:00:27;;;;;;;8.40;7.50;;;15.00;99.90;;;;;;2106188;28;20542;-70
2023/09/23 01:01:28;;;;;;;7.93;7.03;;;15.00;99.90;;;;;;2104067;28;20038;-69
2023/09/23 01:02:28;;;;;;;8.43;7.40;;;15.00;99.90;;;;;;2095187;28;20124;-70
2023/09/23 01:03:30;;;;;;;9.57;7.63;;;14.90;99.90;;;;;;2108107;28;20072;-70
2023/09/23 01:04:33;;;;;;;8.93;7.38;;;15.00;99.90;;;;;;2099669;28;20106;-70
2023/09/23 01:05:34;;;;;;;9.98;7.47;;;14.90;99.90;;;;;;2099649;28;20050;-69
2023/09/23 01:06:35;;;;;;;8.18;7.40;;;14.90;99.90;;;;;;2097760;28;20500;-70
2023/09/23 01:07:38;;;;;;;8.25;7.45;;;14.90;99.90;;;;;;2104618;28;20490;-69
2023/09/23 01:08:41;;;;;;;8.32;7.10;;;14.80;99.90;;;;;;2097722;28;20024;-70
2023/09/23 01:09:44;;;;;;;8.32;7.53;;;14.80;99.90;;;;;;2100822;28;20027;-69
2023/09/23 01:10:49;;;;;;;9.70;7.65;;;14.80;99.90;;;;;;2107653;28;20028;-69
2023/09/23 01:11:51;;;;;;;8.98;7.97;;;14.80;99.90;;;;;;2099608;28;20027;-70
2023/09/23 01:12:52;;;;;;;8.95;7.97;;;14.70;99.90;;;;;;2100638;28;20414;-69
2023/09/23 01:13:54;;;;;;;10.50;7.93;;;14.70;99.90;;;;;;2091103;28;20101;-69
2023/09/23 01:15:16;;;;;;;9.82;8.07;;;14.70;99.90;;;;;;2090179;28;20031;-69
2023/09/23 01:16:17;;;;;;;;;;;14.70;99.90;;;;;;2096530;28;20036;-69
2023/09/23 01:17:18;;;;;;;8.80;7.90;;;14.60;99.90;;;;;;2091402;28;19916;-69
2023/09/23 01:18:20;;;;;;;8.70;7.80;;;14.60;99.90;;;;;;2099200;28;20181;-69
2023/09/23 01:19:25;;;;;;;8.57;7.75;;;14.60;99.90;;;;;;2095911;28;20062;-69
2023/09/23 01:20:26;;;;;;;8.60;7.80;;;14.60;99.90;;;;;;2108208;28;20114;-69
2023/09/23 01:21:27;;;;;;;9.10;8.13;;;14.60;99.90;;;;;;2100025;28;20054;-70
2023/09/23 01:22:27;;;;;;;9.93;8.15;;;14.60;99.90;;;;;;2099371;28;20028;-70
2023/09/23 01:23:28;;;;;;;8.95;8.00;;;14.50;99.90;;;;;;2103225;28;20688;-69
2023/09/23 01:24:30;;;;;;;8.68;7.88;;;14.50;99.90;;;;;;2099951;28;20055;-69
2023/09/23 01:25:30;;;;;;;8.55;7.63;;;14.50;99.90;;;;;;2108351;28;20023;-71
2023/09/23 01:26:31;;;;;;;9.93;8.10;;;14.50;99.90;;;;;;2106533;28;20058;-69
2023/09/23 01:27:34;;;;;;;9.75;8.30;;;14.40;99.90;;;;;;2100553;28;20035;-70
2023/09/23 01:28:35;;;;;;;9.25;8.23;;;14.40;99.90;;;;;;2098953;28;20035;-70
2023/09/23 01:29:35;;;;;;;9.15;8.18;;;14.40;99.90;;;;;;2099277;28;20047;-70
2023/09/23 01:30:36;;;;;;;9.90;8.57;;;14.40;99.90;;;;;;2107428;28;20107;-70
2023/09/23 01:31:37;;;;;;;10.38;8.20;;;14.30;99.90;;;;;;2104554;28;20039;-70
2023/09/23 01:32:45;;;;;;;9.32;8.40;;;14.30;99.90;;;;;;2102764;28;20209;-70
2023/09/23 01:33:46;;;;;;;9.13;8.15;;;14.30;99.90;;;;;;2095964;28;20493;-69
2023/09/23 01:34:47;;;;;;;9.13;8.07;;;14.30;99.90;;;;;;2095093;28;20123;-70
2023/09/23 01:35:48;;;;;;;10.27;8.13;;;14.30;99.90;;;;;;2107522;28;23128;-69
2023/09/23 01:36:49;;;;;;;8.77;7.68;;;14.30;99.90;;;;;;2097942;28;20290;-70
2023/09/23 01:37:50;;;;;;;8.75;7.63;;;14.40;99.90;;;;;;2086829;28;20016;-69
2023/09/23 01:38:52;;;;;;;9.13;8.23;;;14.40;99.90;;;;;;2099529;28;20275;-69
2023/09/23 01:39:52;;;;;;;9.23;8.05;;;14.40;99.90;;;;;;2083179;28;20126;-69
2023/09/23 01:40:53;;;;;;;10.82;8.27;;;14.50;99.90;;;;;;2085754;28;20111;-69
2023/09/23 01:41:54;;;;;;;9.05;7.75;;;14.50;99.90;;;;;;2106594;28;20024;-69
2023/09/23 01:42:55;;;;;;;9.68;8.52;;;14.50;99.90;;;;;;2107565;28;20062;-69
2023/09/23 01:43:56;;;;;;;10.65;7.85;;;14.50;99.90;;;;;;2107738;28;20514;-69
2023/09/23 01:44:59;;;;;;;9.23;7.55;;;14.50;99.90;;;;;;2103829;28;20172;-72
2023/09/23 01:46:04;;;;;;;9.60;7.35;;;14.50;99.90;;;;;;2107331;28;20033;-69
2023/09/23 01:47:04;;;;;;;8.38;7.00;;;14.50;99.90;;;;;;2103215;28;20115;-69
2023/09/23 01:48:05;;;;;;;8.90;8.00;;;14.50;99.90;;;;;;2107156;28;20498;-69
2023/09/23 01:49:06;;;;;;;8.45;7.57;;;14.40;99.90;;;;;;2107421;28;20032;-70
2023/09/23 01:50:10;;;;;;;8.23;7.40;;;14.40;99.90;;;;;;2107370;28;20106;-69
2023/09/23 01:51:16;;;;;;;8.80;7.95;;;14.40;99.90;;;;;;2104096;28;20434;-70
2023/09/23 01:52:18;;;;;;;8.55;7.63;;;14.30;99.90;;;;;;2104940;28;20587;-70
2023/09/23 01:53:21;;;;;;;8.82;7.53;;;14.30;99.90;;;;;;2100334;28;20093;-69
2023/09/23 01:54:22;;;;;;;8.80;7.47;;;14.30;99.90;;;;;;2104269;28;20059;-70
2023/09/23 01:55:23;;;;;;;9.32;7.70;;;14.30;99.90;;;;;;2094536;28;20034;-69
2023/09/23 01:56:23;;;;;;;8.63;7.45;;;14.30;99.90;;;;;;2098265;28;20068;-72
2023/09/23 01:57:24;;;;;;;8.98;7.35;;;14.30;99.90;;;;;;2103118;28;20035;-70
2023/09/23 01:58:25;;;;;;;8.40;7.50;;;14.30;99.90;;;;;;2092044;28;20127;-69
2023/09/23 01:59:25;;;;;;;8.13;7.32;;;14.30;99.90;;;;;;2094027;28;20024;-69
2023/09/23 02:00:26;;;;;;;9.63;7.40;;;14.30;99.90;;;;;;2094873;28;20566;-70
2023/09/23 02:01:26;;;;;;;8.30;7.50;;;14.30;99.90;;;;;;2098950;28;20637;-70
2023/09/23 02:02:29;;;;;;;10.68;8.05;;;14.30;99.90;;;;;;2086748;28;20036;-70
2023/09/23 02:03:30;;;;;;;9.38;7.90;;;14.30;99.90;;;;;;2084963;28;20094;-70
2023/09/23 02:04:30;;;;;;;9.63;7.55;;;14.30;99.90;;;;;;2086927;28;20108;-69
2023/09/23 02:05:32;;;;;;;9.60;7.65;;;14.30;99.90;;;;;;2082936;28;20395;-69
2023/09/23 02:06:43;;;;;;;9.63;7.68;;;14.30;99.90;;;;;;2098714;28;20569;-69
2023/09/23 02:07:45;;;;;;;8.45;7.30;;;14.30;99.90;;;;;;2105557;28;20114;-69
2023/09/23 02:08:46;;;;;;;8.75;7.25;;;14.20;99.90;;;;;;2103387;28;20059;-70
2023/09/23 02:09:47;;;;;;;8.38;7.20;;;14.30;99.90;;;;;;2107498;28;20020;-69
2023/09/23 02:10:48;;;;;;;8.80;7.38;;;14.30;99.90;;;;;;2100010;28;20452;-69
2023/09/23 02:11:53;;;;;;;8.68;6.93;;;14.30;99.90;;;;;;2102450;28;20068;-69
2023/09/23 02:12:55;;;;;;;8.60;7.25;;;14.20;99.90;;;;;;2105821;28;20126;-70
2023/09/23 02:13:56;;;;;;;8.10;7.00;;;14.20;99.90;;;;;;2107302;28;20039;-69
2023/09/23 02:14:56;;;;;;;8.40;6.95;;;14.20;99.90;;;;;;2107269;28;20427;-70
2023/09/23 02:15:58;;;;;;;7.72;6.65;;;14.20;99.90;;;;;;2096955;28;20441;-69
2023/09/23 02:17:00;;;;;;;8.43;6.30;;;14.30;99.90;;;;;;2090963;28;20020;-70
2023/09/23 02:18:04;;;;;;;7.55;6.75;;;14.30;99.90;;;;;;2099321;28;20050;-70
2023/09/23 02:19:04;;;;;;;8.50;6.97;;;14.30;99.90;;;;;;2105812;28;20036;-69
2023/09/23 02:20:21;;;;;;;7.85;7.03;;;14.30;99.90;;;;;;2100447;28;20024;-69
2023/09/23 02:21:23;;;;;;;8.30;7.40;;;14.30;99.90;;;;;;2106381;28;20094;-70
2023/09/23 02:22:24;;;;;;;9.02;7.00;;;14.30;99.90;;;;;;2101050;28;20129;-68
2023/09/23 02:23:25;;;;;;;8.02;7.22;;;14.30;99.90;;;;;;2106445;28;20100;-71
2023/09/23 02:24:25;;;;;;;7.78;6.88;;;14.30;99.90;;;;;;2099984;28;20081;-69
2023/09/23 02:25:26;;;;;;;7.95;7.10;;;14.20;99.90;;;;;;2096259;28;20526;-70
2023/09/23 02:26:27;;;;;;;8.15;6.63;;;14.20;99.90;;;;;;2109372;28;20115;-69
2023/09/23 02:27:28;;;;;;;8.77;7.05;;;14.10;99.90;;;;;;2103539;28;20032;-69
2023/09/23 02:28:28;;;;;;;8.27;6.70;;;14.10;99.90;;;;;;2104369;28;20056;-69
2023/09/23 02:29:30;;;;;;;7.75;6.80;;;14.10;99.90;;;;;;2105993;28;20023;-68
2023/09/23 02:30:32;;;;;;;8.05;6.80;;;14.00;99.90;;;;;;2109291;28;20370;-68
2023/09/23 02:31:35;;;;;;;7.45;6.72;;;14.00;99.90;;;;;;2100412;28;20089;-69
2023/09/23 02:32:38;;;;;;;7.90;7.10;;;14.00;99.90;;;;;;2102274;28;20011;-70
2023/09/23 02:33:39;;;;;;;7.88;6.88;;;14.00;99.90;;;;;;2108245;28;20115;-71
2023/09/23 02:34:40;;;;;;;8.60;6.63;;;13.90;99.90;;;;;;2100560;28;20012;-68
2023/09/23 02:35:41;;;;;;;7.47;6.72;;;13.90;99.90;;;;;;2108746;28;20039;-69
2023/09/23 02:36:51;;;;;;;7.60;6.70;;;13.90;99.90;;;;;;2101311;27;20020;-69
2023/09/23 02:37:53;;;;;;;7.80;6.72;;;13.90;99.90;;;;;;2106701;28;20024;-69
2023/09/23 02:38:53;;;;;;;7.10;6.40;;;13.90;99.90;;;;;;2099853;28;20039;-69
2023/09/23 02:39:54;;;;;;;7.90;6.65;;;13.90;99.90;;;;;;2108927;28;20028;-69
2023/09/23 02:41:00;;;;;;;7.32;6.55;;;13.90;99.90;;;;;;2097549;28;20035;-68
2023/09/23 02:42:04;;;;;;;7.45;6.18;;;13.90;99.90;;;;;;2109000;28;20030;-69
2023/09/23 02:43:05;;;;;;;7.28;6.47;;;13.90;99.90;;;;;;2098827;28;20023;-69
2023/09/23 02:44:05;;;;;;;8.60;6.65;;;13.90;99.90;;;;;;2105595;28;20111;-69
2023/09/23 02:45:07;;;;;;;6.10;5.50;;;13.90;99.90;;;;;;2100613;28;20737;-69
2023/09/23 02:46:07;;;;;;;9.50;5.55;;;13.90;99.90;;;;;;2108372;28;20142;-69
2023/09/23 02:47:08;;;;;;;8.00;5.60;;;13.90;99.90;;;;;;2107127;28;20027;-69
2023/09/23 02:48:09;;;;;;;5.90;5.30;;;13.90;99.90;;;;;;2103361;28;20108;-68
2023/09/23 02:49:09;;;;;;;6.70;5.20;;;13.90;99.90;;;;;;2105463;28;20019;-70
2023/09/23 02:50:13;;;;;;;5.22;4.63;;;13.90;99.90;;;;;;2105776;28;20016;-70
2023/09/23 02:51:13;;;;;;;5.32;4.60;;;14.00;99.90;;;;;;2105327;28;20028;-71
2023/09/23 02:52:14;;;;;;;4.80;4.30;;;13.90;99.90;;;;;;2100435;28;20100;-70
2023/09/23 02:53:15;;;;;;;5.28;4.35;;;13.90;99.90;;;;;;2101006;28;20059;-70
2023/09/23 02:54:15;;;;;;;5.40;4.43;;;14.00;99.90;;;;;;2098605;28;20020;-70
2023/09/23 02:55:19;;;;;;;3.03;2.70;;;14.00;99.90;;;;;;2092941;28;20032;-69
2023/09/23 02:56:20;;;;;;;2.63;1.98;;;14.00;99.90;;;;;;2096984;28;20093;-70
2023/09/23 02:57:21;;;;;;;3.47;2.13;;;14.10;99.90;;;;;;2094891;28;20496;-69
2023/09/23 02:58:22;;;;;;;3.13;2.60;;;14.20;99.90;;;;;;2087958;28;20044;-83
2023/09/23 02:59:29;;;;;;;2.72;2.28;;;14.20;99.90;;;;;;2092558;28;20193;-89
2023/09/23 03:00:32;;;;;;;2.70;2.40;;;14.20;99.90;;;;;;2101534;28;20051;-87
2023/09/23 03:01:33;;;;;;;2.00;1.60;;;14.20;99.90;;;;;;2105616;28;20066;-83
2023/09/23 03:02:35;;;;;;;1.85;1.63;;;14.30;99.90;;;;;;2100247;28;20042;-81
2023/09/23 03:03:40;;;;;;;1.77;1.60;;;14.30;99.90;;;;;;2103059;28;20035;-89
2023/09/23 03:04:43;;;;;;;2.20;1.70;;;14.40;99.90;;;;;;2110243;28;20030;-85
2023/09/23 03:05:54;;;;;;;2.60;1.80;;;14.40;99.90;;;;;;2109793;28;20456;-83
2023/09/23 03:06:59;;;;;;;3.40;1.65;;;14.50;99.90;;;;;;2101118;28;20398;-86
2023/09/23 03:08:01;;;;;;;2.00;1.75;;;14.50;99.90;;;;;;2105223;28;20038;-69
2023/09/23 03:09:02;;;;;;;2.75;1.70;;;14.50;99.90;;;;;;2092246;28;20028;-70
2023/09/23 03:10:08;;;;;;;1.75;1.65;;;14.50;99.90;;;;;;2100079;28;20359;-70
2023/09/23 03:11:12;;;;;;;4.13;1.77;;;14.50;99.90;;;;;;2088441;28;20029;-69
2023/09/23 03:12:15;;;;;;;2.50;1.70;;;14.50;99.90;;;;;;2101597;28;20077;-69
2023/09/23 03:13:17;;;;;;;1.73;1.63;;;14.50;99.90;;;;;;2098491;28;20032;-70
2023/09/23 03:14:18;;;;;;;2.00;1.80;;;14.50;99.90;;;;;;2106544;28;20110;-68
2023/09/23 03:15:22;;;;;;;1.80;1.70;;;14.50;99.90;;;;;;2100164;28;20031;-70
2023/09/23 03:16:28;;;;;;;2.28;1.80;;;14.50;99.90;;;;;;2101515;28;20024;-71
2023/09/23 03:17:31;;;;;;;2.80;1.95;;;14.50;99.90;;;;;;2100557;28;20522;-70
2023/09/23 03:18:36;;;;;;;1.60;1.50;;;14.50;99.90;;;;;;2099622;28;20115;-70
2023/09/23 03:19:38;;;;;;;1.90;1.60;;;14.50;99.90;;;;;;2093130;28;20115;-70
2023/09/23 03:20:40;;;;;;;2.10;1.80;;;14.50;99.90;;;;;;2108692;28;20573;-70
2023/09/23 03:21:42;;;;;;;2.08;1.85;;;14.50;99.90;;;;;;2106844;28;20026;-69
2023/09/23 03:22:43;;;;;;;1.90;1.80;;;14.50;99.90;;;;;;2103739;28;20023;-69
2023/09/23 03:23:44;;;;;;;3.25;1.70;;;14.50;99.90;;;;;;2098746;28;20506;-70
2023/09/23 03:24:48;;;;;;;2.38;1.80;;;14.50;99.90;;;;;;2095535;28;20501;-70
2023/09/23 03:25:51;;;;;;;2.22;1.80;;;14.40;99.90;;;;;;2100467;28;20515;-70
2023/09/23 03:26:59;;;;;;;2.20;1.70;;;14.40;99.90;;;;;;2086511;28;20053;-71
2023/09/23 03:28:00;;;;;;;2.65;1.60;;;14.40;99.90;;;;;;2089370;28;20088;-70
2023/09/23 03:29:00;;;;;;;2.40;1.85;;;14.30;99.90;;;;;;2095969;28;20063;-70
2023/09/23 03:30:02;;;;;;;1.90;1.70;;;14.30;99.90;;;;;;2096139;28;20076;-69
2023/09/23 03:31:08;;;;;;;2.67;1.70;;;14.30;99.90;;;;;;2088016;28;20645;-68
2023/09/23 03:32:10;;;;;;;3.13;1.77;;;14.20;99.90;;;;;;2084754;28;20025;-70
2023/09/23 03:33:12;;;;;;;3.00;1.70;;;14.30;99.90;;;;;;2090466;28;20028;-70
2023/09/23 03:34:14;;;;;;;2.08;1.70;;;14.30;99.90;;;;;;2103032;28;20487;-70
2023/09/23 03:35:24;;;;;;;3.65;1.70;;;14.20;99.90;;;;;;2094816;28;20028;-70
2023/09/23 03:36:25;;;;;;;2.22;1.70;;;14.20;99.90;;;;;;2100148;28;20034;-70
2023/09/23 03:37:26;;;;;;;2.13;1.70;;;14.20;99.90;;;;;;2100214;28;20478;-70
2023/09/23 03:38:32;;;;;;;2.15;1.70;;;14.10;99.90;;;;;;2105916;28;20023;-70
2023/09/23 03:39:34;;;;;;;2.35;1.58;;;14.10;99.90;;;;;;2104482;28;20483;-70
2023/09/23 03:40:35;;;;;;;1.85;1.60;;;14.10;99.90;;;;;;2099145;28;20024;-71
2023/09/23 03:41:39;;;;;;;2.80;1.63;;;14.10;99.90;;;;;;2095831;28;20056;-70
2023/09/23 03:42:40;;;;;;;2.20;1.70;;;14.10;99.90;;;;;;2094059;28;20055;-70
2023/09/23 03:43:41;;;;;;;2.55;1.80;;;14.10;99.90;;;;;;2090987;28;20036;-70
2023/09/23 03:44:43;;;;;;;1.80;1.50;;;14.10;99.90;;;;;;2095033;28;20067;-70
2023/09/23 03:45:43;;;;;;;1.77;1.60;;;14.10;99.90;;;;;;2096881;28;20065;-70
2023/09/23 03:46:48;;;;;;;1.63;1.52;;;14.10;99.90;;;;;;2107340;28;20106;-71
2023/09/23 03:47:48;;;;;;;2.92;1.60;;;14.00;99.90;;;;;;2096506;28;20676;-70
2023/09/23 03:48:49;;;;;;;1.63;1.40;;;14.00;99.90;;;;;;2106385;28;20034;-70
2023/09/23 03:49:50;;;;;;;3.00;1.40;;;14.00;99.90;;;;;;2091935;28;20049;-70
2023/09/23 03:50:52;;;;;;;1.75;1.60;;;14.00;99.90;;;;;;2092798;28;20213;-70
2023/09/23 03:51:53;;;;;;;2.20;1.70;;;14.00;99.90;;;;;;2084662;28;20025;-70
2023/09/23 03:52:53;;;;;;;2.13;1.60;;;13.90;99.90;;;;;;2091593;28;20028;-70
2023/09/23 03:53:54;;;;;;;3.28;1.80;;;14.00;99.90;;;;;;2094194;28;20059;-69
2023/09/23 03:54:55;;;;;;;2.47;1.60;;;14.00;99.90;;;;;;2109999;27;20019;-70
2023/09/23 03:55:59;;;;;;;4.70;1.60;;;14.00;99.90;;;;;;2102509;27;20027;-70
2023/09/23 03:57:00;;;;;;;2.45;1.60;;;14.00;99.90;;;;;;2099835;28;20028;-69
2023/09/23 03:58:03;;;;;;;3.38;1.70;;;14.00;99.90;;;;;;2099679;28;20537;-70
2023/09/23 03:59:05;;;;;;;1.50;1.40;;;14.00;99.90;;;;;;2100597;28;20529;-71
2023/09/23 04:00:14;;;;;;;1.65;1.40;;;14.00;99.90;;;;;;2104430;28;20746;-70
2023/09/23 04:01:15;;;;;;;1.50;1.40;;;14.00;99.90;;;;;;2108503;28;20047;-70
2023/09/23 04:02:16;;;;;;;2.30;1.48;;;14.00;99.90;;;;;;2108323;28;20096;-70
2023/09/23 04:03:17;;;;;;;1.30;1.20;;;14.00;99.90;;;;;;2104417;28;20239;-71
2023/09/23 04:04:18;;;;;;;2.75;1.55;;;14.00;99.90;;;;;;2103104;28;20063;-70
2023/09/23 04:05:20;;;;;;;2.55;1.45;;;14.00;99.90;;;;;;2099656;28;20032;-70
2023/09/23 04:06:21;;;;;;;1.33;1.23;;;14.10;99.90;;;;;;2099932;28;20105;-69
2023/09/23 04:07:22;;;;;;;3.72;1.33;;;14.00;99.90;;;;;;2100440;28;20028;-70
2023/09/23 04:08:24;;;;;;;1.55;1.30;;;14.00;99.90;;;;;;2106643;28;20023;-71
2023/09/23 04:09:24;;;;;;;1.63;1.30;;;14.00;99.90;;;;;;2096708;28;20883;-71
2023/09/23 04:10:27;;;;;;;1.50;1.40;;;14.00;99.90;;;;;;2102469;28;20031;-70
2023/09/23 04:11:27;;;;;;;3.10;1.40;;;14.00;99.90;;;;;;2098157;28;20470;-70
2023/09/23 04:12:28;;;;;;;1.38;1.27;;;13.90;99.90;;;;;;2101922;28;20209;-70
2023/09/23 04:13:30;;;;;;;1.65;1.40;;;13.90;99.90;;;;;;2103515;28;20055;-70
2023/09/23 04:14:31;;;;;;;2.67;1.30;;;13.90;99.90;;;;;;2098942;28;20032;-70
2023/09/23 04:15:32;;;;;;;2.08;1.42;;;13.90;99.90;;;;;;2099920;28;20072;-80
2023/09/23 04:16:33;;;;;;;1.75;1.20;;;13.90;99.90;;;;;;2092775;28;20063;-87
2023/09/23 04:17:34;;;;;;;2.25;1.50;;;13.90;99.90;;;;;;2105010;28;20127;-71
2023/09/23 04:18:35;;;;;;;2.17;1.60;;;13.90;99.90;;;;;;2087138;28;20423;-74
2023/09/23 04:19:35;;;;;;;2.22;1.35;;;13.90;99.90;;;;;;2091546;28;20020;-75
2023/09/23 04:20:36;;;;;;;1.80;1.30;;;13.90;99.90;;;;;;2108088;28;20051;-74
2023/09/23 04:21:37;;;;;;;2.08;1.40;;;13.90;99.90;;;;;;2106376;28;20035;-75
2023/09/23 04:22:38;;;;;;;2.72;2.03;;;13.90;99.90;;;;;;2107997;28;20039;-74
2023/09/23 04:23:39;;;;;;;2.47;1.70;;;13.90;99.90;;;;;;2104668;28;20462;-75
2023/09/23 04:24:40;;;;;;;2.53;1.98;;;13.90;99.90;;;;;;2096998;28;20078;-74
2023/09/23 04:25:40;;;;;;;2.63;1.88;;;13.90;99.90;;;;;;2107129;28;20027;-74
2023/09/23 04:26:41;;;;;;;2.95;1.70;;;13.90;99.90;;;;;;2104394;28;20498;-74
2023/09/23 04:27:41;;;;;;;2.22;1.70;;;13.90;99.90;;;;;;2108060;28;20280;-74
2023/09/23 04:28:43;;;;;;;1.65;1.35;;;13.90;99.90;;;;;;2106897;28;20027;-74
2023/09/23 04:29:44;;;;;;;1.58;1.40;;;13.90;99.90;;;;;;2101468;28;20458;-74
2023/09/23 04:30:45;;;;;;;1.75;1.40;;;13.90;99.90;;;;;;2103041;28;20035;-74
2023/09/23 04:31:46;;;;;;;2.40;1.58;;;13.90;99.90;;;;;;2093849;28;20032;-74
2023/09/23 04:32:47;;;;;;;2.20;1.50;;;13.80;99.90;;;;;;2106497;28;20111;-74
2023/09/23 04:33:47;;;;;;;2.95;1.55;;;13.80;99.90;;;;;;2099871;28;20025;-74
2023/09/23 04:34:48;;;;;;;2.38;1.45;;;13.80;99.90;;;;;;2105943;28;20035;-74
2023/09/23 04:35:49;;;;;;;1.73;1.52;;;13.80;99.90;;;;;;2106234;28;20039;-74
2023/09/23 04:36:50;;;;;;;1.95;1.50;;;13.70;99.90;;;;;;2108676;28;20027;-74
2023/09/23 04:37:51;;;;;;;2.42;1.40;;;13.70;99.90;;;;;;2107975;28;20261;-74
2023/09/23 04:38:51;;;;;;;2.03;1.50;;;13.80;99.90;;;;;;2099442;28;20430;-74
2023/09/23 04:39:53;;;;;;;1.67;1.58;;;13.70;99.90;;;;;;2107947;28;20031;-74
2023/09/23 04:40:54;;;;;;;2.35;1.55;;;13.70;99.90;;;;;;2108110;28;20435;-74
2023/09/23 04:41:54;;;;;;;2.70;1.50;;;13.70;99.90;;;;;;2089465;28;20411;-74
2023/09/23 04:42:55;;;;;;;1.98;1.50;;;13.70;99.90;;;;;;2093554;28;20032;-74
2023/09/23 04:43:57;;;;;;;2.30;1.52;;;13.70;99.90;;;;;;2108072;28;20589;-74
2023/09/23 04:44:58;;;;;;;2.40;1.50;;;13.70;99.90;;;;;;2095477;28;20120;-73
2023/09/23 04:45:58;;;;;;;3.08;1.60;;;13.70;99.90;;;;;;2091014;28;20090;-74
2023/09/23 04:46:59;;;;;;;2.03;1.40;;;13.70;99.90;;;;;;2098798;28;20201;-74
2023/09/23 04:48:01;;;;;;;2.55;1.40;;;13.70;99.90;;;;;;2101479;27;20036;-73
2023/09/23 04:49:03;;;;;;;3.05;1.70;;;13.70;99.90;;;;;;2102955;28;20592;-74
2023/09/23 04:50:10;;;;;;;2.88;1.30;;;13.60;99.90;;;;;;2104423;28;20019;-73
2023/09/23 04:51:11;;;;;;;2.25;1.60;;;13.70;99.90;;;;;;2099449;28;20027;-73
2023/09/23 04:52:12;;;;;;;2.72;1.60;;;13.80;99.90;;;;;;2099395;28;20478;-74
2023/09/23 04:53:12;;;;;;;1.48;1.38;;;13.80;99.90;;;;;;2101780;28;20035;-74
2023/09/23 04:54:13;;;;;;;4.13;1.42;;;13.80;99.90;;;;;;2108903;28;20074;-74
2023/09/23 04:55:14;;;;;;;2.72;1.42;;;13.80;99.90;;;;;;2105788;28;20043;-73
2023/09/23 04:56:17;;;;;;;2.35;1.42;;;13.80;99.90;;;;;;2096410;28;20115;-74
2023/09/23 04:57:17;;;;;;;3.13;1.48;;;13.70;99.90;;;;;;2099711;28;20055;-74
2023/09/23 04:58:18;;;;;;;1.55;1.35;;;13.70;99.90;;;;;;2105320;28;20032;-73
2023/09/23 04:59:18;;;;;;;2.30;1.30;;;13.80;99.90;;;;;;2102159;28;20020;-74
2023/09/23 05:00:21;;;;;;;1.45;1.30;;;13.80;99.90;;;;;;2094463;28;20139;-74
2023/09/23 05:01:24;;;;;;;2.70;1.60;;;13.80;99.90;;;;;;2083409;28;20100;-74
2023/09/23 05:02:25;;;;;;;1.73;1.13;;;13.80;99.90;;;;;;2102875;28;20189;-73
2023/09/23 05:03:26;;;;;;;3.50;1.35;;;13.70;99.90;;;;;;2099619;28;20036;-76
2023/09/23 05:04:27;;;;;;;1.30;1.20;;;13.70;99.90;;;;;;2102348;28;20125;-76
2023/09/23 05:05:27;;;;;;;3.13;1.70;;;13.80;99.90;;;;;;2102075;28;20182;-75
2023/09/23 05:06:28;;;;;;;1.63;1.35;;;13.70;99.90;;;;;;2100343;28;20530;-74
2023/09/23 05:07:29;;;;;;;3.22;1.95;;;13.70;99.90;;;;;;2108759;28;20545;-76
2023/09/23 05:08:30;;;;;;;3.35;2.63;;;13.70;99.90;;;;;;2102814;28;20840;-74
2023/09/23 05:09:31;;;;;;;2.50;2.30;;;13.70;99.90;;;;;;2092854;28;20043;-74
2023/09/23 05:10:32;;;;;;;3.60;2.38;;;13.70;99.90;;;;;;2098380;28;20036;-75
2023/09/23 05:11:33;;;;;;;3.45;2.75;;;13.70;99.90;;;;;;2108044;28;20031;-75
2023/09/23 05:12:34;;;;;;;3.22;2.20;;;13.70;99.90;;;;;;2101652;28;20031;-72
2023/09/23 05:13:36;;;;;;;4.97;4.15;;;13.70;99.90;;;;;;2107781;28;20035;-72
2023/09/23 05:14:40;;;;;;;6.13;4.68;;;13.70;99.90;;;;;;2103133;28;20031;-72
2023/09/23 05:15:43;;;;;;;7.55;5.82;;;13.70;99.90;;;;;;2092419;28;20106;-72
2023/09/23 05:16:43;;;;;;;5.57;5.00;;;13.70;99.90;;;;;;2107893;28;20034;-72
2023/09/23 05:17:44;;;;;;;6.50;5.50;;;13.70;99.90;;;;;;2106518;28;20019;-72
2023/09/23 05:18:45;;;;;;;7.90;6.78;;;13.70;99.90;;;;;;2105267;28;20012;-73
2023/09/23 05:19:46;;;;;;;5.75;5.15;;;13.70;99.90;;;;;;2108823;28;20027;-72
2023/09/23 05:20:49;;;;;;;8.23;6.85;;;13.70;99.90;;;;;;2108386;27;20027;-74
2023/09/23 05:21:50;;;;;;;6.30;5.70;;;13.70;99.90;;;;;;2103717;28;20023;-74